sensor_id;sensor_type;location;lat;lon;timestamp;P1;durP1;ratioP1;P2;durP2;ratioP2
36963;SDS011;22878;48.616;35.326;2022-09-21T00:00:02;17.42;;;8.40;;
36963;SDS011;22878;48.616;35.326;2022-09-21T00:02:29;18.85;;;8.10;;
36963;SDS011;22878;48.616;35.326;2022-09-21T00:04:54;21.77;;;9.03;;
36963;SDS011;22878;48.616;35.326;2022-09-21T00:07:20;21.80;;;9.18;;
36963;SDS011;22878;48.616;35.326;2022-09-21T00:09:46;28.60;;;9.95;;
36963;SDS011;22878;48.616;35.326;2022-09-21T00:12:12;21.15;;;8.35;;
36963;SDS011;22878;48.616;35.326;2022-09-21T00:14:38;19.85;;;8.10;;
36963;SDS011;22878;48.616;35.326;2022-09-21T00:17:04;18.62;;;7.58;;
36963;SDS011;22878;48.616;35.326;2022-09-21T00:19:30;17.92;;;7.28;;
36963;SDS011;22878;48.616;35.326;2022-09-21T00:21:56;17.15;;;6.55;;
36963;SDS011;22878;48.616;35.326;2022-09-21T00:24:21;18.95;;;6.30;;
36963;SDS011;22878;48.616;35.326;2022-09-21T00:26:47;18.25;;;5.37;;
36963;SDS011;22878;48.616;35.326;2022-09-21T00:29:13;14.87;;;5.97;;
36963;SDS011;22878;48.616;35.326;2022-09-21T00:31:39;14.03;;;6.10;;
36963;SDS011;22878;48.616;35.326;2022-09-21T00:34:05;11.38;;;5.03;;
36963;SDS011;22878;48.616;35.326;2022-09-21T00:36:34;12.45;;;4.97;;
36963;SDS011;22878;48.616;35.326;2022-09-21T00:39:00;10.88;;;4.40;;
36963;SDS011;22878;48.616;35.326;2022-09-21T00:41:27;14.03;;;4.10;;
36963;SDS011;22878;48.616;35.326;2022-09-21T00:46:50;6.97;;;3.10;;
36963;SDS011;22878;48.616;35.326;2022-09-21T00:49:17;6.67;;;3.45;;
36963;SDS011;22878;48.616;35.326;2022-09-21T00:51:43;8.90;;;3.40;;
36963;SDS011;22878;48.616;35.326;2022-09-21T00:54:11;9.18;;;3.10;;
36963;SDS011;22878;48.616;35.326;2022-09-21T00:56:40;10.03;;;3.30;;
36963;SDS011;22878;48.616;35.326;2022-09-21T00:59:07;8.78;;;3.58;;
36963;SDS011;22878;48.616;35.326;2022-09-21T01:01:33;6.50;;;3.12;;
36963;SDS011;22878;48.616;35.326;2022-09-21T01:04:00;5.75;;;2.87;;
36963;SDS011;22878;48.616;35.326;2022-09-21T01:06:27;8.85;;;3.30;;
36963;SDS011;22878;48.616;35.326;2022-09-21T01:08:53;5.97;;;2.90;;
36963;SDS011;22878;48.616;35.326;2022-09-21T01:21:47;8.35;;;3.75;;
36963;SDS011;22878;48.616;35.326;2022-09-21T01:30:00;30.80;;;9.68;;
36963;SDS011;22878;48.616;35.326;2022-09-21T01:32:41;16.73;;;5.75;;
36963;SDS011;22878;48.616;35.326;2022-09-21T01:35:23;8.15;;;3.77;;
36963;SDS011;22878;48.616;35.326;2022-09-21T01:37:58;9.35;;;3.58;;
36963;SDS011;22878;48.616;35.326;2022-09-21T01:43:03;12.18;;;3.60;;
36963;SDS011;22878;48.616;35.326;2022-09-21T01:45:31;7.87;;;3.15;;
36963;SDS011;22878;48.616;35.326;2022-09-21T01:47:59;8.75;;;3.40;;
36963;SDS011;22878;48.616;35.326;2022-09-21T01:50:31;7.08;;;3.83;;
36963;SDS011;22878;48.616;35.326;2022-09-21T01:53:07;20.85;;;5.70;;
36963;SDS011;22878;48.616;35.326;2022-09-21T01:58:12;22.35;;;7.95;;
36963;SDS011;22878;48.616;35.326;2022-09-21T02:00:41;23.18;;;7.45;;
36963;SDS011;22878;48.616;35.326;2022-09-21T02:05:55;28.70;;;9.38;;
36963;SDS011;22878;48.616;35.326;2022-09-21T02:08:21;33.70;;;11.28;;
36963;SDS011;22878;48.616;35.326;2022-09-21T02:10:50;29.60;;;10.03;;
36963;SDS011;22878;48.616;35.326;2022-09-21T02:13:17;25.20;;;8.93;;
36963;SDS011;22878;48.616;35.326;2022-09-21T02:26:47;12.75;;;5.08;;
36963;SDS011;22878;48.616;35.326;2022-09-21T02:32:05;15.05;;;4.10;;
36963;SDS011;22878;48.616;35.326;2022-09-21T02:37:20;11.85;;;4.90;;
36963;SDS011;22878;48.616;35.326;2022-09-21T02:39:53;8.80;;;4.35;;
36963;SDS011;22878;48.616;35.326;2022-09-21T02:42:21;8.63;;;4.33;;
36963;SDS011;22878;48.616;35.326;2022-09-21T02:44:53;11.12;;;3.95;;
36963;SDS011;22878;48.616;35.326;2022-09-21T02:47:34;15.25;;;4.40;;
36963;SDS011;22878;48.616;35.326;2022-09-21T02:50:09;9.58;;;3.67;;
36963;SDS011;22878;48.616;35.326;2022-09-21T02:52:37;9.65;;;4.58;;
36963;SDS011;22878;48.616;35.326;2022-09-21T02:55:05;9.30;;;4.10;;
36963;SDS011;22878;48.616;35.326;2022-09-21T02:57:31;10.43;;;4.55;;
36963;SDS011;22878;48.616;35.326;2022-09-21T02:59:57;21.37;;;6.22;;
36963;SDS011;22878;48.616;35.326;2022-09-21T03:02:23;14.63;;;5.70;;
36963;SDS011;22878;48.616;35.326;2022-09-21T03:04:49;17.32;;;5.60;;
36963;SDS011;22878;48.616;35.326;2022-09-21T03:07:15;12.20;;;4.37;;
36963;SDS011;22878;48.616;35.326;2022-09-21T03:09:41;12.20;;;4.33;;
36963;SDS011;22878;48.616;35.326;2022-09-21T03:12:07;11.05;;;5.15;;
36963;SDS011;22878;48.616;35.326;2022-09-21T03:14:33;11.83;;;4.40;;
36963;SDS011;22878;48.616;35.326;2022-09-21T03:16:59;10.70;;;4.50;;
36963;SDS011;22878;48.616;35.326;2022-09-21T03:19:25;13.03;;;4.53;;
36963;SDS011;22878;48.616;35.326;2022-09-21T03:21:52;11.75;;;4.50;;
36963;SDS011;22878;48.616;35.326;2022-09-21T03:24:18;10.75;;;4.42;;
36963;SDS011;22878;48.616;35.326;2022-09-21T03:26:46;11.78;;;4.58;;
36963;SDS011;22878;48.616;35.326;2022-09-21T03:29:12;9.00;;;4.03;;
36963;SDS011;22878;48.616;35.326;2022-09-21T03:31:39;9.50;;;3.92;;
36963;SDS011;22878;48.616;35.326;2022-09-21T03:34:05;14.13;;;5.10;;
36963;SDS011;22878;48.616;35.326;2022-09-21T03:36:31;15.85;;;4.60;;
36963;SDS011;22878;48.616;35.326;2022-09-21T03:38:57;15.65;;;5.03;;
36963;SDS011;22878;48.616;35.326;2022-09-21T03:41:23;15.80;;;4.20;;
36963;SDS011;22878;48.616;35.326;2022-09-21T03:43:48;9.38;;;4.45;;
36963;SDS011;22878;48.616;35.326;2022-09-21T03:46:14;15.48;;;4.80;;
36963;SDS011;22878;48.616;35.326;2022-09-21T03:48:41;19.92;;;5.00;;
36963;SDS011;22878;48.616;35.326;2022-09-21T03:51:08;17.75;;;5.10;;
36963;SDS011;22878;48.616;35.326;2022-09-21T03:53:34;19.50;;;5.55;;
36963;SDS011;22878;48.616;35.326;2022-09-21T03:56:00;19.80;;;5.45;;
36963;SDS011;22878;48.616;35.326;2022-09-21T03:58:25;18.10;;;5.90;;
36963;SDS011;22878;48.616;35.326;2022-09-21T04:00:51;17.23;;;5.53;;
36963;SDS011;22878;48.616;35.326;2022-09-21T04:03:18;22.45;;;5.72;;
36963;SDS011;22878;48.616;35.326;2022-09-21T04:05:44;24.75;;;5.92;;
36963;SDS011;22878;48.616;35.326;2022-09-21T04:08:10;16.70;;;5.70;;
36963;SDS011;22878;48.616;35.326;2022-09-21T04:10:37;25.62;;;6.92;;
36963;SDS011;22878;48.616;35.326;2022-09-21T04:13:05;19.45;;;6.28;;
36963;SDS011;22878;48.616;35.326;2022-09-21T04:15:31;17.42;;;5.50;;
36963;SDS011;22878;48.616;35.326;2022-09-21T04:17:56;17.70;;;4.65;;
36963;SDS011;22878;48.616;35.326;2022-09-21T04:20:23;11.05;;;3.72;;
36963;SDS011;22878;48.616;35.326;2022-09-21T04:22:49;8.40;;;3.70;;
36963;SDS011;22878;48.616;35.326;2022-09-21T04:25:15;10.65;;;4.17;;
36963;SDS011;22878;48.616;35.326;2022-09-21T04:27:41;12.82;;;3.62;;
36963;SDS011;22878;48.616;35.326;2022-09-21T04:30:08;10.88;;;3.85;;
36963;SDS011;22878;48.616;35.326;2022-09-21T04:32:35;9.95;;;3.72;;
36963;SDS011;22878;48.616;35.326;2022-09-21T04:35:01;11.43;;;3.25;;
36963;SDS011;22878;48.616;35.326;2022-09-21T04:37:27;13.18;;;3.80;;
36963;SDS011;22878;48.616;35.326;2022-09-21T04:39:53;14.07;;;4.35;;
36963;SDS011;22878;48.616;35.326;2022-09-21T04:42:19;9.45;;;3.77;;
36963;SDS011;22878;48.616;35.326;2022-09-21T04:44:44;13.65;;;4.50;;
36963;SDS011;22878;48.616;35.326;2022-09-21T04:47:10;11.10;;;4.12;;
36963;SDS011;22878;48.616;35.326;2022-09-21T04:49:36;13.00;;;4.42;;
36963;SDS011;22878;48.616;35.326;2022-09-21T04:52:02;13.72;;;4.72;;
36963;SDS011;22878;48.616;35.326;2022-09-21T04:54:28;11.90;;;4.22;;
36963;SDS011;22878;48.616;35.326;2022-09-21T04:56:54;12.20;;;4.40;;
36963;SDS011;22878;48.616;35.326;2022-09-21T04:59:21;13.45;;;4.85;;
36963;SDS011;22878;48.616;35.326;2022-09-21T05:01:47;8.80;;;4.00;;
36963;SDS011;22878;48.616;35.326;2022-09-21T05:04:13;10.65;;;4.10;;
36963;SDS011;22878;48.616;35.326;2022-09-21T05:06:38;12.05;;;4.03;;
36963;SDS011;22878;48.616;35.326;2022-09-21T05:09:04;7.15;;;3.72;;
36963;SDS011;22878;48.616;35.326;2022-09-21T05:11:49;11.18;;;4.00;;
36963;SDS011;22878;48.616;35.326;2022-09-21T05:14:15;12.70;;;4.15;;
36963;SDS011;22878;48.616;35.326;2022-09-21T05:16:41;9.63;;;3.77;;
36963;SDS011;22878;48.616;35.326;2022-09-21T05:19:07;8.93;;;3.77;;
36963;SDS011;22878;48.616;35.326;2022-09-21T05:21:33;10.15;;;4.50;;
36963;SDS011;22878;48.616;35.326;2022-09-21T05:24:00;7.97;;;4.28;;
36963;SDS011;22878;48.616;35.326;2022-09-21T05:26:26;14.50;;;4.40;;
36963;SDS011;22878;48.616;35.326;2022-09-21T05:28:52;9.55;;;4.55;;
36963;SDS011;22878;48.616;35.326;2022-09-21T05:34:15;7.60;;;4.40;;
36963;SDS011;22878;48.616;35.326;2022-09-21T05:39:11;6.33;;;3.72;;
36963;SDS011;22878;48.616;35.326;2022-09-21T05:41:37;8.05;;;3.75;;
36963;SDS011;22878;48.616;35.326;2022-09-21T05:44:04;5.67;;;3.42;;
36963;SDS011;22878;48.616;35.326;2022-09-21T05:46:38;7.25;;;3.40;;
36963;SDS011;22878;48.616;35.326;2022-09-21T05:49:31;9.18;;;3.90;;
36963;SDS011;22878;48.616;35.326;2022-09-21T05:55:01;6.62;;;4.00;;
36963;SDS011;22878;48.616;35.326;2022-09-21T06:00:13;6.97;;;3.80;;
36963;SDS011;22878;48.616;35.326;2022-09-21T06:05:22;10.45;;;4.30;;
36963;SDS011;22878;48.616;35.326;2022-09-21T06:07:48;6.92;;;4.20;;
36963;SDS011;22878;48.616;35.326;2022-09-21T06:10:14;9.73;;;4.03;;
36963;SDS011;22878;48.616;35.326;2022-09-21T06:12:40;7.90;;;4.70;;
36963;SDS011;22878;48.616;35.326;2022-09-21T06:15:07;8.78;;;5.08;;
36963;SDS011;22878;48.616;35.326;2022-09-21T06:17:38;7.80;;;5.22;;
36963;SDS011;22878;48.616;35.326;2022-09-21T06:20:05;7.83;;;5.28;;
36963;SDS011;22878;48.616;35.326;2022-09-21T06:22:31;7.20;;;5.05;;
36963;SDS011;22878;48.616;35.326;2022-09-21T06:24:58;6.75;;;4.40;;
36963;SDS011;22878;48.616;35.326;2022-09-21T06:27:24;7.50;;;3.83;;
36963;SDS011;22878;48.616;35.326;2022-09-21T06:29:50;5.83;;;3.72;;
36963;SDS011;22878;48.616;35.326;2022-09-21T06:32:17;5.83;;;3.77;;
36963;SDS011;22878;48.616;35.326;2022-09-21T06:34:43;6.55;;;3.22;;
36963;SDS011;22878;48.616;35.326;2022-09-21T06:37:09;5.35;;;3.20;;
36963;SDS011;22878;48.616;35.326;2022-09-21T06:39:34;6.17;;;3.22;;
36963;SDS011;22878;48.616;35.326;2022-09-21T06:42:01;6.75;;;3.12;;
36963;SDS011;22878;48.616;35.326;2022-09-21T06:44:27;9.30;;;3.45;;
36963;SDS011;22878;48.616;35.326;2022-09-21T06:46:54;6.08;;;3.17;;
36963;SDS011;22878;48.616;35.326;2022-09-21T06:49:21;4.12;;;2.95;;
36963;SDS011;22878;48.616;35.326;2022-09-21T06:51:49;6.10;;;2.77;;
36963;SDS011;22878;48.616;35.326;2022-09-21T06:54:15;4.20;;;3.02;;
36963;SDS011;22878;48.616;35.326;2022-09-21T06:56:42;5.42;;;2.80;;
36963;SDS011;22878;48.616;35.326;2022-09-21T06:59:08;6.30;;;3.35;;
36963;SDS011;22878;48.616;35.326;2022-09-21T07:01:34;5.92;;;3.40;;
36963;SDS011;22878;48.616;35.326;2022-09-21T07:04:00;6.40;;;3.60;;
36963;SDS011;22878;48.616;35.326;2022-09-21T07:06:26;5.85;;;3.72;;
36963;SDS011;22878;48.616;35.326;2022-09-21T07:08:53;6.58;;;3.15;;
36963;SDS011;22878;48.616;35.326;2022-09-21T07:11:19;6.83;;;2.85;;
36963;SDS011;22878;48.616;35.326;2022-09-21T07:13:47;6.12;;;2.77;;
36963;SDS011;22878;48.616;35.326;2022-09-21T07:16:13;8.10;;;3.58;;
36963;SDS011;22878;48.616;35.326;2022-09-21T07:18:40;6.78;;;3.12;;
36963;SDS011;22878;48.616;35.326;2022-09-21T07:21:06;5.42;;;3.12;;
36963;SDS011;22878;48.616;35.326;2022-09-21T07:23:35;6.28;;;3.72;;
36963;SDS011;22878;48.616;35.326;2022-09-21T07:28:30;6.70;;;2.95;;
36963;SDS011;22878;48.616;35.326;2022-09-21T07:30:56;7.80;;;3.52;;
36963;SDS011;22878;48.616;35.326;2022-09-21T07:33:23;7.80;;;3.00;;
36963;SDS011;22878;48.616;35.326;2022-09-21T07:35:50;8.68;;;3.33;;
36963;SDS011;22878;48.616;35.326;2022-09-21T07:38:16;5.75;;;3.15;;
36963;SDS011;22878;48.616;35.326;2022-09-21T07:40:42;7.22;;;3.10;;
36963;SDS011;22878;48.616;35.326;2022-09-21T07:43:08;6.92;;;2.90;;
36963;SDS011;22878;48.616;35.326;2022-09-21T07:45:35;6.42;;;3.10;;
36963;SDS011;22878;48.616;35.326;2022-09-21T07:48:01;4.83;;;2.50;;
36963;SDS011;22878;48.616;35.326;2022-09-21T07:50:28;5.50;;;2.87;;
36963;SDS011;22878;48.616;35.326;2022-09-21T07:52:54;5.50;;;2.77;;
36963;SDS011;22878;48.616;35.326;2022-09-21T07:55:20;5.80;;;2.72;;
36963;SDS011;22878;48.616;35.326;2022-09-21T07:57:48;6.53;;;2.83;;
36963;SDS011;22878;48.616;35.326;2022-09-21T08:00:32;4.15;;;2.55;;
36963;SDS011;22878;48.616;35.326;2022-09-21T08:02:59;3.98;;;2.60;;
36963;SDS011;22878;48.616;35.326;2022-09-21T08:05:26;7.90;;;2.65;;
36963;SDS011;22878;48.616;35.326;2022-09-21T08:07:54;7.50;;;2.70;;
36963;SDS011;22878;48.616;35.326;2022-09-21T08:10:21;6.92;;;3.30;;
36963;SDS011;22878;48.616;35.326;2022-09-21T08:12:47;6.42;;;3.40;;
36963;SDS011;22878;48.616;35.326;2022-09-21T08:15:14;7.10;;;2.90;;
36963;SDS011;22878;48.616;35.326;2022-09-21T08:17:40;6.42;;;2.85;;
36963;SDS011;22878;48.616;35.326;2022-09-21T08:20:06;8.13;;;3.67;;
36963;SDS011;22878;48.616;35.326;2022-09-21T08:22:32;5.80;;;3.50;;
36963;SDS011;22878;48.616;35.326;2022-09-21T08:24:58;8.08;;;3.35;;
36963;SDS011;22878;48.616;35.326;2022-09-21T08:27:23;7.83;;;3.47;;
36963;SDS011;22878;48.616;35.326;2022-09-21T08:29:50;7.05;;;3.20;;
36963;SDS011;22878;48.616;35.326;2022-09-21T08:32:16;9.05;;;3.52;;
36963;SDS011;22878;48.616;35.326;2022-09-21T08:34:41;9.25;;;3.17;;
36963;SDS011;22878;48.616;35.326;2022-09-21T08:37:07;6.97;;;3.70;;
36963;SDS011;22878;48.616;35.326;2022-09-21T08:39:34;7.85;;;3.67;;
36963;SDS011;22878;48.616;35.326;2022-09-21T08:42:09;5.42;;;3.25;;
36963;SDS011;22878;48.616;35.326;2022-09-21T08:47:31;4.90;;;2.80;;
36963;SDS011;22878;48.616;35.326;2022-09-21T08:49:59;5.05;;;3.00;;
36963;SDS011;22878;48.616;35.326;2022-09-21T08:52:26;7.35;;;3.00;;
36963;SDS011;22878;48.616;35.326;2022-09-21T08:54:56;7.72;;;3.25;;
36963;SDS011;22878;48.616;35.326;2022-09-21T08:59:54;7.95;;;3.30;;
36963;SDS011;22878;48.616;35.326;2022-09-21T09:05:24;7.55;;;3.25;;
36963;SDS011;22878;48.616;35.326;2022-09-21T09:08:00;6.22;;;3.40;;
36963;SDS011;22878;48.616;35.326;2022-09-21T09:15:39;5.92;;;3.10;;
36963;SDS011;22878;48.616;35.326;2022-09-21T09:25:55;5.97;;;3.47;;
36963;SDS011;22878;48.616;35.326;2022-09-21T09:28:27;4.83;;;2.90;;
36963;SDS011;22878;48.616;35.326;2022-09-21T09:31:04;6.17;;;2.72;;
36963;SDS011;22878;48.616;35.326;2022-09-21T09:33:42;3.40;;;2.30;;
36963;SDS011;22878;48.616;35.326;2022-09-21T09:36:11;5.70;;;2.33;;
36963;SDS011;22878;48.616;35.326;2022-09-21T09:38:44;5.87;;;2.62;;
36963;SDS011;22878;48.616;35.326;2022-09-21T09:47:09;4.08;;;2.60;;
36963;SDS011;22878;48.616;35.326;2022-09-21T09:52:32;4.80;;;2.60;;
36963;SDS011;22878;48.616;35.326;2022-09-21T09:54:58;6.45;;;2.50;;
36963;SDS011;22878;48.616;35.326;2022-09-21T09:57:28;4.42;;;2.52;;
36963;SDS011;22878;48.616;35.326;2022-09-21T09:59:59;5.78;;;2.80;;
36963;SDS011;22878;48.616;35.326;2022-09-21T10:02:32;5.03;;;2.65;;
36963;SDS011;22878;48.616;35.326;2022-09-21T10:05:01;3.98;;;2.60;;
36963;SDS011;22878;48.616;35.326;2022-09-21T10:12:45;6.95;;;2.70;;
36963;SDS011;22878;48.616;35.326;2022-09-21T10:15:11;6.15;;;2.30;;
36963;SDS011;22878;48.616;35.326;2022-09-21T10:17:37;4.17;;;2.50;;
36963;SDS011;22878;48.616;35.326;2022-09-21T10:20:04;4.72;;;2.40;;
36963;SDS011;22878;48.616;35.326;2022-09-21T10:22:32;6.17;;;2.62;;
36963;SDS011;22878;48.616;35.326;2022-09-21T10:24:58;5.50;;;2.83;;
36963;SDS011;22878;48.616;35.326;2022-09-21T10:27:30;4.50;;;2.60;;
36963;SDS011;22878;48.616;35.326;2022-09-21T10:29:59;3.15;;;2.42;;
36963;SDS011;22878;48.616;35.326;2022-09-21T10:32:26;6.60;;;2.75;;
36963;SDS011;22878;48.616;35.326;2022-09-21T10:35:12;5.28;;;2.92;;
36963;SDS011;22878;48.616;35.326;2022-09-21T10:40:21;7.97;;;2.37;;
36963;SDS011;22878;48.616;35.326;2022-09-21T10:42:44;7.15;;;2.62;;
36963;SDS011;22878;48.616;35.326;2022-09-21T10:45:14;4.75;;;2.47;;
36963;SDS011;22878;48.616;35.326;2022-09-21T10:47:48;3.80;;;2.20;;
36963;SDS011;22878;48.616;35.326;2022-09-21T10:58:21;3.77;;;2.15;;
36963;SDS011;22878;48.616;35.326;2022-09-21T11:00:48;5.35;;;1.80;;
36963;SDS011;22878;48.616;35.326;2022-09-21T11:08:29;2.58;;;1.65;;
36963;SDS011;22878;48.616;35.326;2022-09-21T11:11:22;1.85;;;1.45;;
36963;SDS011;22878;48.616;35.326;2022-09-21T11:13:52;5.45;;;1.80;;
36963;SDS011;22878;48.616;35.326;2022-09-21T11:16:23;2.17;;;1.60;;
36963;SDS011;22878;48.616;35.326;2022-09-21T11:27:05;2.25;;;1.72;;
36963;SDS011;22878;48.616;35.326;2022-09-21T11:32:32;3.33;;;1.82;;
36963;SDS011;22878;48.616;35.326;2022-09-21T11:38:17;5.15;;;1.92;;
36963;SDS011;22878;48.616;35.326;2022-09-21T11:46:29;4.58;;;2.17;;
36963;SDS011;22878;48.616;35.326;2022-09-21T12:02:32;3.17;;;1.90;;
36963;SDS011;22878;48.616;35.326;2022-09-21T12:08:31;5.05;;;2.02;;
36963;SDS011;22878;48.616;35.326;2022-09-21T12:13:27;3.77;;;2.30;;
36963;SDS011;22878;48.616;35.326;2022-09-21T12:19:06;3.12;;;1.90;;
36963;SDS011;22878;48.616;35.326;2022-09-21T12:21:36;4.70;;;1.92;;
36963;SDS011;22878;48.616;35.326;2022-09-21T12:24:18;5.55;;;2.40;;
36963;SDS011;22878;48.616;35.326;2022-09-21T12:26:51;7.75;;;2.55;;
36963;SDS011;22878;48.616;35.326;2022-09-21T12:34:30;7.60;;;2.95;;
36963;SDS011;22878;48.616;35.326;2022-09-21T12:39:28;4.90;;;2.40;;
36963;SDS011;22878;48.616;35.326;2022-09-21T12:42:00;4.05;;;2.40;;
36963;SDS011;22878;48.616;35.326;2022-09-21T12:44:33;3.45;;;2.47;;
36963;SDS011;22878;48.616;35.326;2022-09-21T12:49:48;9.10;;;2.08;;
36963;SDS011;22878;48.616;35.326;2022-09-21T12:52:19;4.45;;;2.27;;
36963;SDS011;22878;48.616;35.326;2022-09-21T13:00:04;7.95;;;2.72;;
36963;SDS011;22878;48.616;35.326;2022-09-21T13:02:33;7.83;;;2.65;;
36963;SDS011;22878;48.616;35.326;2022-09-21T13:05:29;8.10;;;2.70;;
36963;SDS011;22878;48.616;35.326;2022-09-21T13:13:22;4.45;;;1.92;;
36963;SDS011;22878;48.616;35.326;2022-09-21T13:15:50;6.58;;;2.50;;
36963;SDS011;22878;48.616;35.326;2022-09-21T13:18:18;2.87;;;2.08;;
36963;SDS011;22878;48.616;35.326;2022-09-21T13:20:46;3.83;;;2.47;;
36963;SDS011;22878;48.616;35.326;2022-09-21T13:23:15;9.20;;;2.92;;
36963;SDS011;22878;48.616;35.326;2022-09-21T13:25:48;4.20;;;2.20;;
36963;SDS011;22878;48.616;35.326;2022-09-21T13:35:50;5.12;;;2.40;;
36963;SDS011;22878;48.616;35.326;2022-09-21T13:38:30;5.58;;;2.30;;
36963;SDS011;22878;48.616;35.326;2022-09-21T13:41:02;3.80;;;2.17;;
36963;SDS011;22878;48.616;35.326;2022-09-21T13:54:26;6.55;;;2.85;;
36963;SDS011;22878;48.616;35.326;2022-09-21T14:02:53;5.92;;;2.60;;
36963;SDS011;22878;48.616;35.326;2022-09-21T14:10:21;6.05;;;2.85;;
36963;SDS011;22878;48.616;35.326;2022-09-21T14:12:49;4.53;;;2.30;;
36963;SDS011;22878;48.616;35.326;2022-09-21T14:17:45;4.53;;;2.20;;
36963;SDS011;22878;48.616;35.326;2022-09-21T14:20:32;9.00;;;1.98;;
36963;SDS011;22878;48.616;35.326;2022-09-21T14:23:10;4.22;;;2.08;;
36963;SDS011;22878;48.616;35.326;2022-09-21T14:28:16;7.50;;;2.40;;
36963;SDS011;22878;48.616;35.326;2022-09-21T14:30:49;7.50;;;2.33;;
36963;SDS011;22878;48.616;35.326;2022-09-21T14:33:28;3.30;;;1.90;;
36963;SDS011;22878;48.616;35.326;2022-09-21T14:35:57;5.12;;;1.75;;
36963;SDS011;22878;48.616;35.326;2022-09-21T14:38:27;3.00;;;2.05;;
36963;SDS011;22878;48.616;35.326;2022-09-21T14:41:04;3.55;;;2.08;;
36963;SDS011;22878;48.616;35.326;2022-09-21T14:43:32;8.23;;;1.98;;
36963;SDS011;22878;48.616;35.326;2022-09-21T14:51:52;6.28;;;2.12;;
36963;SDS011;22878;48.616;35.326;2022-09-21T14:59:55;3.92;;;2.10;;
36963;SDS011;22878;48.616;35.326;2022-09-21T15:02:26;6.12;;;2.92;;
36963;SDS011;22878;48.616;35.326;2022-09-21T15:10:49;7.25;;;2.85;;
36963;SDS011;22878;48.616;35.326;2022-09-21T15:16:23;5.67;;;2.70;;
36963;SDS011;22878;48.616;35.326;2022-09-21T15:19:04;6.00;;;2.90;;
36963;SDS011;22878;48.616;35.326;2022-09-21T15:21:49;6.12;;;2.92;;
36963;SDS011;22878;48.616;35.326;2022-09-21T15:26:53;5.83;;;2.80;;
36963;SDS011;22878;48.616;35.326;2022-09-21T15:29:25;5.12;;;2.70;;
36963;SDS011;22878;48.616;35.326;2022-09-21T15:31:52;10.32;;;2.65;;
36963;SDS011;22878;48.616;35.326;2022-09-21T15:34:18;7.45;;;2.85;;
36963;SDS011;22878;48.616;35.326;2022-09-21T15:36:45;8.30;;;2.67;;
36963;SDS011;22878;48.616;35.326;2022-09-21T15:39:26;9.93;;;3.00;;
36963;SDS011;22878;48.616;35.326;2022-09-21T15:44:25;12.20;;;2.83;;
36963;SDS011;22878;48.616;35.326;2022-09-21T15:46:53;5.37;;;2.77;;
36963;SDS011;22878;48.616;35.326;2022-09-21T15:49:21;8.28;;;3.02;;
36963;SDS011;22878;48.616;35.326;2022-09-21T15:51:52;6.12;;;2.70;;
36963;SDS011;22878;48.616;35.326;2022-09-21T15:56:54;10.98;;;3.65;;
36963;SDS011;22878;48.616;35.326;2022-09-21T15:59:20;9.60;;;2.75;;
36963;SDS011;22878;48.616;35.326;2022-09-21T16:01:47;8.05;;;3.00;;
36963;SDS011;22878;48.616;35.326;2022-09-21T16:06:55;7.33;;;2.72;;
36963;SDS011;22878;48.616;35.326;2022-09-21T16:09:27;7.08;;;3.12;;
36963;SDS011;22878;48.616;35.326;2022-09-21T16:11:55;10.40;;;2.77;;
36963;SDS011;22878;48.616;35.326;2022-09-21T16:14:21;9.75;;;2.98;;
36963;SDS011;22878;48.616;35.326;2022-09-21T16:19:43;7.95;;;3.08;;
36963;SDS011;22878;48.616;35.326;2022-09-21T16:22:12;9.90;;;3.35;;
36963;SDS011;22878;48.616;35.326;2022-09-21T16:24:48;12.45;;;3.22;;
36963;SDS011;22878;48.616;35.326;2022-09-21T16:29:43;13.15;;;4.53;;
36963;SDS011;22878;48.616;35.326;2022-09-21T16:34:45;19.05;;;5.17;;
36963;SDS011;22878;48.616;35.326;2022-09-21T16:37:23;17.10;;;4.58;;
36963;SDS011;22878;48.616;35.326;2022-09-21T16:39:51;14.50;;;4.42;;
36963;SDS011;22878;48.616;35.326;2022-09-21T16:42:18;9.70;;;4.15;;
36963;SDS011;22878;48.616;35.326;2022-09-21T16:44:44;13.90;;;3.77;;
36963;SDS011;22878;48.616;35.326;2022-09-21T16:47:12;8.30;;;3.72;;
36963;SDS011;22878;48.616;35.326;2022-09-21T16:49:42;8.93;;;4.00;;
36963;SDS011;22878;48.616;35.326;2022-09-21T16:52:09;18.10;;;4.60;;
36963;SDS011;22878;48.616;35.326;2022-09-21T16:54:34;12.53;;;4.12;;
36963;SDS011;22878;48.616;35.326;2022-09-21T16:57:02;16.32;;;4.72;;
36963;SDS011;22878;48.616;35.326;2022-09-21T16:59:30;11.80;;;4.10;;
36963;SDS011;22878;48.616;35.326;2022-09-21T17:01:57;11.53;;;4.60;;
36963;SDS011;22878;48.616;35.326;2022-09-21T17:04:28;11.12;;;4.28;;
36963;SDS011;22878;48.616;35.326;2022-09-21T17:06:55;17.00;;;4.62;;
36963;SDS011;22878;48.616;35.326;2022-09-21T17:09:22;11.65;;;4.40;;
36963;SDS011;22878;48.616;35.326;2022-09-21T17:11:50;17.35;;;4.90;;
36963;SDS011;22878;48.616;35.326;2022-09-21T17:14:17;13.90;;;4.00;;
36963;SDS011;22878;48.616;35.326;2022-09-21T17:19:15;13.38;;;4.47;;
36963;SDS011;22878;48.616;35.326;2022-09-21T17:21:45;16.27;;;4.83;;
36963;SDS011;22878;48.616;35.326;2022-09-21T17:24:12;13.48;;;4.22;;
36963;SDS011;22878;48.616;35.326;2022-09-21T17:26:39;17.52;;;3.98;;
36963;SDS011;22878;48.616;35.326;2022-09-21T17:29:18;12.75;;;3.90;;
36963;SDS011;22878;48.616;35.326;2022-09-21T17:31:50;12.40;;;4.28;;
36963;SDS011;22878;48.616;35.326;2022-09-21T17:34:20;11.57;;;4.25;;
36963;SDS011;22878;48.616;35.326;2022-09-21T17:36:47;15.75;;;4.53;;
36963;SDS011;22878;48.616;35.326;2022-09-21T17:39:13;17.57;;;7.42;;
36963;SDS011;22878;48.616;35.326;2022-09-21T17:41:42;21.35;;;6.80;;
36963;SDS011;22878;48.616;35.326;2022-09-21T17:49:39;11.85;;;4.70;;
36963;SDS011;22878;48.616;35.326;2022-09-21T17:52:12;12.75;;;4.78;;
36963;SDS011;22878;48.616;35.326;2022-09-21T17:54:58;13.35;;;4.65;;
36963;SDS011;22878;48.616;35.326;2022-09-21T17:57:34;11.85;;;5.50;;
36963;SDS011;22878;48.616;35.326;2022-09-21T18:00:03;16.37;;;6.17;;
36963;SDS011;22878;48.616;35.326;2022-09-21T18:02:31;16.23;;;6.03;;
36963;SDS011;22878;48.616;35.326;2022-09-21T18:04:58;20.50;;;6.80;;
36963;SDS011;22878;48.616;35.326;2022-09-21T18:07:26;24.02;;;8.80;;
36963;SDS011;22878;48.616;35.326;2022-09-21T18:09:52;25.48;;;9.83;;
36963;SDS011;22878;48.616;35.326;2022-09-21T18:15:04;23.55;;;10.13;;
36963;SDS011;22878;48.616;35.326;2022-09-21T18:17:55;22.32;;;9.50;;
36963;SDS011;22878;48.616;35.326;2022-09-21T18:25:29;29.90;;;10.95;;
36963;SDS011;22878;48.616;35.326;2022-09-21T18:27:57;30.43;;;9.35;;
36963;SDS011;22878;48.616;35.326;2022-09-21T18:30:24;30.02;;;10.68;;
36963;SDS011;22878;48.616;35.326;2022-09-21T18:38:13;33.92;;;12.95;;
36963;SDS011;22878;48.616;35.326;2022-09-21T18:43:56;35.80;;;13.08;;
36963;SDS011;22878;48.616;35.326;2022-09-21T18:46:46;35.80;;;13.40;;
36963;SDS011;22878;48.616;35.326;2022-09-21T18:49:41;35.05;;;13.53;;
36963;SDS011;22878;48.616;35.326;2022-09-21T18:52:29;36.75;;;12.53;;
36963;SDS011;22878;48.616;35.326;2022-09-21T18:54:55;34.08;;;12.75;;
36963;SDS011;22878;48.616;35.326;2022-09-21T18:57:21;40.03;;;13.18;;
36963;SDS011;22878;48.616;35.326;2022-09-21T18:59:47;37.80;;;13.40;;
36963;SDS011;22878;48.616;35.326;2022-09-21T19:02:15;36.17;;;13.03;;
36963;SDS011;22878;48.616;35.326;2022-09-21T19:04:43;37.90;;;13.28;;
36963;SDS011;22878;48.616;35.326;2022-09-21T19:15:21;39.13;;;14.13;;
36963;SDS011;22878;48.616;35.326;2022-09-21T19:18:02;35.78;;;13.35;;